METAR Formatted Surface Weather Observation
Issued by NWS

Home | Current Version | Previous Version | Text Only | Print | Product List | Glossary On
Versions: 1
000
SAUS45 KFGZ 251357
MTRRQE
METAR KRQE 251353Z AUTO 00000KT 10SM CLR M14/M18 A3044 RMK AO2
SLP335 T11391183 TSNO



USA.gov is the U.S. government's official web portal to all federal, state and local government web resources and services.